シャルル・ド・ゴール国際空港(パリ)の過去48時間の天気

シャルル・ド・ゴール国際空港(パリ) (Paris-Aeroport Charles De Gaulle)

現在時刻: 8/25 17:26 CEST (8/25 15:26 UTC) 以下の時間は現地時間です。

過去48時間のMETAR気象情報
時間 風向 風速(m/s) 視程 気温(℃) 湿度(%) 気圧(hPa) 天気現象
25 17:00 西 3 10km以上 32 26 1018
25 16:30 西北西 2 10km以上 32 24 1018
25 16:00 北西 4 10km以上 32 26 1018
25 15:30 3 10km以上 31 29 1018
25 15:00 3 10km以上 31 31 1018
25 14:30 不定 2 10km以上 31 31 1018
25 14:00 不定 2 10km以上 30 35 1018
25 13:30 不定 2 10km以上 30 35 1018
25 13:00 東北東 2 10km以上 29 37 1019
25 12:30 北東 2 10km以上 28 42 1019
25 12:00 北東 2 10km以上 28 45 1019
25 11:30 北北東 2 10km以上 27 48 1019
25 11:00 北東 2 10km以上 26 51 1019
25 10:30 北東 2 10km以上 26 51 1019
25 10:00 不定 2 10km以上 24 57 1019
25 09:30 不定 2 10km以上 23 57 1018
25 09:00 静穏 0 10km以上 20 68 1018
25 08:30 不定 1 10km以上 19 68 1018
25 08:00 不定 2 10km以上 19 68 1018
25 07:30 北東 2 10km以上 18 73 1017
25 07:00 3 10km以上 18 73 1017
25 06:30 2 10km以上 18 73 1017
25 06:00 3 10km以上 18 73 1017
25 05:30 北北東 2 10km以上 18 68 1017
25 05:00 2 10km以上 19 68 1017
25 04:30 北西 1 10km以上 19 68 1017
25 04:00 西北西 1 10km以上 19 68 1017
25 03:30 不定 1 10km以上 19 68 1017
25 03:00 南西 1 10km以上 20 64 1017
25 02:30 不定 1 10km以上 21 60 1017
25 02:00 4 10km以上 22 57 1017
25 01:30 東北東 4 10km以上 22 57 1017
25 01:00 3 10km以上 23 53 1017
25 00:30 4 10km以上 24 50 1018
25 00:00 4 10km以上 24 50 1017
24 23:30 3 10km以上 24 50 1018
24 23:00 4 10km以上 25 47 1017
24 22:30 東北東 4 10km以上 26 45 1017
24 22:00 3 10km以上 26 42 1018
24 21:30 4 10km以上 27 42 1017
24 21:00 3 10km以上 27 42 1017
24 20:30 南東 3 10km以上 28 40 1017
24 20:00 3 10km以上 29 37 1017
24 19:30 2 10km以上 29 35 1017
24 19:00 南南東 2 10km以上 29 37 1017
24 18:30 不定 2 10km以上 30 35 1018
24 18:00 南東 3 10km以上 29 35 1018
24 17:30 東北東 2 10km以上 30 35 1018
24 17:00 不定 2 10km以上 30 33 1018
24 16:30 不定 1 10km以上 30 33 1018
24 16:00 南南東 4 10km以上 30 33 1018
24 15:30 南南東 3 10km以上 30 35 1018
24 15:00 南南東 3 10km以上 29 35 1018
24 14:30 東南東 3 10km以上 29 37 1019
24 14:00 3 10km以上 29 37 1019
24 13:30 3 10km以上 28 40 1019
24 13:00 東南東 4 10km以上 27 45 1019
24 12:30 3 10km以上 26 48 1019
24 12:00 4 10km以上 25 50 1019
24 11:30 4 10km以上 25 50 1020
24 11:00 3 10km以上 24 50 1020
24 10:30 東北東 3 10km以上 23 53 1020
24 10:00 3 10km以上 22 57 1020
24 09:30 3 10km以上 20 60 1020
24 09:00 東北東 3 10km以上 19 64 1020
24 08:30 東北東 4 10km以上 18 68 1020
24 08:00 北北東 3 10km以上 17 72 1019
24 07:30 北北東 4 10km以上 15 77 1019
24 07:00 3 10km以上 15 77 1020
24 06:30 4 10km以上 15 77 1019
24 06:00 4 10km以上 15 77 1019
24 05:30 4 10km以上 16 72 1020
24 05:00 4 10km以上 16 72 1020
24 04:30 3 10km以上 16 72 1020
24 04:00 北北東 3 10km以上 16 72 1020
24 03:30 北北東 3 10km以上 17 68 1020
24 03:00 3 10km以上 18 64 1020
24 02:30 4 10km以上 18 64 1020
24 02:00 3 10km以上 19 60 1020
24 01:30 4 10km以上 19 64 1020
24 01:00 北北東 4 10km以上 19 60 1021
24 00:30 北北東 3 10km以上 19 60 1021
24 00:00 北北東 4 10km以上 20 56 1021
23 23:30 北北東 4 10km以上 20 60 1021
23 23:00 北北東 4 10km以上 21 53 1021
23 22:30 北北東 4 10km以上 21 56 1021
23 22:00 北北東 4 10km以上 22 50 1021
23 21:30 北北東 4 10km以上 22 50 1021
23 21:00 北北東 4 10km以上 23 47 1021
23 20:30 北北東 4 10km以上 24 44 1021
23 20:00 北東 5 10km以上 26 39 1021
23 19:30 北北東 4 10km以上 27 37 1021
23 19:00 北東 4 10km以上 27 37 1021
23 18:30 北北東 4 10km以上 27 37 1021
23 18:00 4 10km以上 28 32 1022
23 17:30 北東 4 10km以上 27 34 1022
LFPG 251500Z 28005KT 230V320 CAVOK 32/10 Q1018 NOSIG
LFPG 251430Z 29004KT 230V340 CAVOK 32/09 Q1018 NOSIG
LFPG 251400Z 31007KT 220V020 CAVOK 32/10 Q1018 NOSIG
LFPG 251330Z 35005KT 300V040 CAVOK 31/11 Q1018 NOSIG
LFPG 251300Z 35005KT 290V050 CAVOK 31/12 Q1018 NOSIG
LFPG 251230Z VRB04KT CAVOK 31/12 Q1018 NOSIG
LFPG 251200Z VRB04KT CAVOK 30/13 Q1018 NOSIG
LFPG 251130Z VRB04KT CAVOK 30/13 Q1018 NOSIG
LFPG 251100Z 07003KT 360V150 CAVOK 29/13 Q1019 NOSIG
LFPG 251030Z 05004KT 360V130 CAVOK 28/14 Q1019 NOSIG
LFPG 251000Z 05004KT 010V130 CAVOK 28/15 Q1019 NOSIG
LFPG 250930Z 03004KT 320V070 CAVOK 27/15 Q1019 NOSIG
LFPG 250900Z 04004KT 330V100 CAVOK 26/15 Q1019 NOSIG
LFPG 250830Z 04003KT 350V100 CAVOK 26/15 Q1019 NOSIG
LFPG 250800Z VRB03KT CAVOK 24/15 Q1019 NOSIG
LFPG 250730Z VRB03KT CAVOK 23/14 Q1018 NOSIG
LFPG 250700Z 00000KT CAVOK 20/14 Q1018 NOSIG
LFPG 250630Z VRB01KT CAVOK 19/13 Q1018 NOSIG
LFPG 250600Z VRB03KT CAVOK 19/13 Q1018 NOSIG
LFPG 250530Z 04004KT 350V110 CAVOK 18/13 Q1017 NOSIG
LFPG 250500Z 36005KT CAVOK 18/13 Q1017 NOSIG
LFPG 250430Z 01004KT 330V060 CAVOK 18/13 Q1017 NOSIG
LFPG 250400Z 01005KT 350V050 CAVOK 18/13 Q1017 NOSIG
LFPG 250330Z 02004KT 340V080 CAVOK 18/12 Q1017 NOSIG
LFPG 250300Z 36004KT CAVOK 19/13 Q1017 NOSIG
LFPG 250230Z 32002KT CAVOK 19/13 Q1017 NOSIG
LFPG 250200Z 30001KT CAVOK 19/13 Q1017 NOSIG
LFPG 250130Z VRB01KT CAVOK 19/13 Q1017 NOSIG
LFPG 250100Z 23002KT CAVOK 20/13 Q1017 NOSIG
LFPG 250030Z VRB02KT CAVOK 21/13 Q1017 NOSIG
LFPG 250000Z 08007KT CAVOK 22/13 Q1017 NOSIG
LFPG 242330Z 07007KT CAVOK 22/13 Q1017 NOSIG
LFPG 242300Z 09006KT CAVOK 23/13 Q1017 NOSIG
LFPG 242230Z 09007KT CAVOK 24/13 Q1018 NOSIG
LFPG 242200Z 08007KT CAVOK 24/13 Q1017 NOSIG
LFPG 242130Z 09006KT CAVOK 24/13 Q1018 NOSIG
LFPG 242100Z 08007KT CAVOK 25/13 Q1017 NOSIG
LFPG 242030Z 07007KT CAVOK 26/13 Q1017 NOSIG
LFPG 242000Z 08006KT CAVOK 26/12 Q1018 NOSIG
LFPG 241930Z 09007KT CAVOK 27/13 Q1017 NOSIG
LFPG 241900Z 09006KT CAVOK 27/13 Q1017 NOSIG
LFPG 241830Z 13006KT CAVOK 28/13 Q1017 NOSIG
LFPG 241800Z 10005KT CAVOK 29/13 Q1017 NOSIG
LFPG 241730Z 09003KT 070V140 CAVOK 29/12 Q1017 NOSIG
LFPG 241700Z 15004KT 110V200 CAVOK 29/13 Q1017 NOSIG
LFPG 241630Z VRB03KT CAVOK 30/13 Q1018 NOSIG
LFPG 241600Z 14006KT CAVOK 29/12 Q1018 NOSIG
LFPG 241530Z 07004KT 350V140 CAVOK 30/13 Q1018 NOSIG
LFPG 241500Z VRB04KT CAVOK 30/12 Q1018 NOSIG
LFPG 241430Z VRB02KT CAVOK 30/12 Q1018 NOSIG
LFPG 241400Z 16007KT 110V210 CAVOK 30/12 Q1018 NOSIG
LFPG 241330Z 16005KT 130V200 CAVOK 30/13 Q1018 NOSIG
LFPG 241300Z 15006KT 060V200 CAVOK 29/12 Q1018 NOSIG
LFPG 241230Z 12005KT 070V170 CAVOK 29/13 Q1019 NOSIG
LFPG 241200Z VRB06KT CAVOK 29/13 Q1019 NOSIG
LFPG 241130Z VRB05KT CAVOK 28/13 Q1019 NOSIG
LFPG 241100Z 12008KT 060V170 CAVOK 27/14 Q1019 NOSIG
LFPG 241030Z 10006KT 060V150 CAVOK 26/14 Q1019 NOSIG
LFPG 241000Z 09007KT 050V130 CAVOK 25/14 Q1019 NOSIG
LFPG 240930Z 09007KT 060V130 CAVOK 25/14 Q1020 NOSIG
LFPG 240900Z 09006KT 050V130 CAVOK 24/13 Q1020 NOSIG
LFPG 240830Z 07006KT 050V110 CAVOK 23/13 Q1020 NOSIG
LFPG 240800Z 08005KT CAVOK 22/13 Q1020 NOSIG
LFPG 240730Z 08005KT 050V110 CAVOK 20/12 Q1020 NOSIG
LFPG 240700Z 06005KT CAVOK 19/12 Q1020 NOSIG
LFPG 240630Z 06007KT CAVOK 18/12 Q1020 NOSIG
LFPG 240600Z 02005KT 360V060 CAVOK 17/12 Q1019 NOSIG
LFPG 240530Z 02007KT 360V060 CAVOK 15/11 Q1019 NOSIG
LFPG 240500Z 01005KT 350V060 CAVOK 15/11 Q1020 NOSIG
LFPG 240430Z 36008KT CAVOK 15/11 Q1019 NOSIG
LFPG 240400Z 01008KT CAVOK 15/11 Q1019 NOSIG
LFPG 240330Z 01007KT CAVOK 16/11 Q1020 NOSIG
LFPG 240300Z 36007KT CAVOK 16/11 Q1020 NOSIG
LFPG 240230Z 36006KT CAVOK 16/11 Q1020 NOSIG
LFPG 240200Z 02005KT CAVOK 16/11 Q1020 NOSIG
LFPG 240130Z 03005KT CAVOK 17/11 Q1020 NOSIG
LFPG 240100Z 01006KT CAVOK 18/11 Q1020 NOSIG
LFPG 240030Z 36008KT CAVOK 18/11 Q1020 NOSIG
LFPG 240000Z 01006KT CAVOK 19/11 Q1020 NOSIG
LFPG 232330Z 01007KT CAVOK 19/12 Q1020 NOSIG
LFPG 232300Z 02007KT CAVOK 19/11 Q1021 NOSIG
LFPG 232230Z 02006KT CAVOK 19/11 Q1021 NOSIG
LFPG 232200Z 02007KT 360V100 CAVOK 20/11 Q1021 NOSIG
LFPG 232130Z 03007KT 010V070 CAVOK 20/12 Q1021 NOSIG
LFPG 232100Z 02007KT 360V080 CAVOK 21/11 Q1021 NOSIG
LFPG 232030Z 03008KT 020V080 CAVOK 21/12 Q1021 NOSIG
LFPG 232000Z 03007KT 360V090 CAVOK 22/11 Q1021 NOSIG
LFPG 231930Z 03007KT 360V080 CAVOK 22/11 Q1021 NOSIG
LFPG 231900Z 03007KT 010V070 CAVOK 23/11 Q1021 NOSIG
LFPG 231830Z 03007KT 010V070 CAVOK 24/11 Q1021 NOSIG
LFPG 231800Z 04010KT 360V080 CAVOK 26/11 Q1021 NOSIG
LFPG 231730Z 03008KT CAVOK 27/11 Q1021 NOSIG
LFPG 231700Z 04007KT 360V060 CAVOK 27/11 Q1021 NOSIG
LFPG 231630Z 03007KT CAVOK 27/11 Q1021 NOSIG
LFPG 231600Z 01007KT 330V060 CAVOK 28/10 Q1022 NOSIG
LFPG 231530Z 05008KT 020V100 CAVOK 27/10 Q1022 NOSIG